Погода Полицена 2 недели

Западнопоморское воеводство, Польша

18 - 31 июля
  • 18июля
    Сегодня
    +14°
    +25°
    Практически безоблачно
    ВремяПогодаТемператураВлажностьДавлениеВетер, м/сВероятность осадков
    02:00Ясно и безоблачно+16°C89 %765 мм2.3 м/с4 %
    05:00Практически безоблачно+15°C92 %766 мм2.2 м/с7 %
    08:00Облачно с прояснениями+17°C80 %766 мм2.6 м/с5 %
    11:00Облачно с прояснениями+20°C68 %767 мм2.7 м/с12 %
    14:00Практически безоблачно+23°C52 %767 мм2.8 м/с2 %
    17:00Облачно с прояснениями+24°C49 %766 мм2.9 м/с2 %
    20:00Облачно с прояснениями+22°C75 %766 мм2.2 м/с2 %
    23:00Ясно и безоблачно+18°C90 %767 мм1.8 м/с2 %
  • 19июля
    Пятница
    +14°
    +26°
    Небольшая облачность
    ВремяПогодаТемператураВлажностьДавлениеВетер, м/сВероятность осадков
    02:00Ясно и безоблачно+16°C95 %767 мм1.5 м/с2 %
    05:00Ясно и безоблачно+14°C98 %767 мм1.2 м/с2 %
    08:00Ясно и безоблачно+19°C83 %766 мм0.5 м/с2 %
    11:00Практически безоблачно+24°C59 %766 мм1.6 м/с2 %
    14:00Небольшая облачность+25°C55 %765 мм2.5 м/с2 %
    17:00Практически безоблачно+25°C58 %764 мм3.0 м/с4 %
    20:00Ясно и безоблачно+23°C69 %764 мм2.7 м/с2 %
    23:00Ясно и безоблачно+18°C82 %764 мм1.8 м/с2 %
  • 20июля
    Суббота
    +16°
    +28°
    Ясно и безоблачно
    ВремяПогодаТемператураВлажностьДавлениеВетер, м/сВероятность осадков
    02:00Ясно и безоблачно+16°C92 %763 мм1.5 м/с2 %
    05:00Ясно и безоблачно+15°C96 %762 мм1.3 м/с2 %
    08:00Ясно и безоблачно+19°C84 %762 мм1.1 м/с2 %
    11:00Ясно и безоблачно+24°C61 %761 мм1.9 м/с2 %
    14:00Ясно и безоблачно+26°C47 %760 мм2.0 м/с2 %
    17:00Ясно и безоблачно+27°C45 %759 мм3.2 м/с2 %
    20:00Ясно и безоблачно+24°C62 %758 мм2.7 м/с2 %
    23:00Ясно и безоблачно+19°C78 %758 мм2.5 м/с2 %
  • 21июля
    Воскресенье
    +18°
    +31°
    Ясно и безоблачно
    ВремяПогодаТемператураВлажностьДавлениеВетер, м/сВероятность осадков
    02:00Ясно и безоблачно+18°C78 %758 мм2.1 м/с2 %
    05:00Ясно и безоблачно+17°C82 %757 мм1.9 м/с2 %
    08:00Ясно и безоблачно+21°C75 %757 мм2.2 м/с2 %
    11:00Ясно и безоблачно+27°C51 %756 мм3.7 м/с2 %
    14:00Ясно и безоблачно+28°C41 %755 мм3.8 м/с5 %
    17:00Ясно и безоблачно+31°C40 %755 мм3.4 м/с11 %
    20:00Ясно и безоблачно+26°C55 %754 мм2.9 м/с23 %
    23:00Облачно с прояснениями+22°C67 %755 мм2.7 м/с21 %
  • 22июля
    Понедельник
    +14°
    +24°
    Пасмурно, дожди с грозами
    ВремяПогодаТемператураВлажностьДавлениеВетер, м/сВероятность осадков
    02:00Практически безоблачно+20°C66 %755 мм2.4 м/с39 %
    05:00Облачно с прояснениями+19°C70 %755 мм1.7 м/с42 %
    08:00Облачно с прояснениями+21°C82 %756 мм1.6 м/с49 %
    11:00Облачно с прояснениями, небольшой дождь+22°C76 %757 мм2.4 м/с63 %
    14:00Пасмурно, дожди с грозами+20°C81 %757 мм3.0 м/с54 %
    17:00Пасмурно, дожди с грозами+22°C83 %758 мм2.9 м/с55 %
    20:00Небольшая облачность, ливень+20°C84 %759 мм1.6 м/с42 %
    23:00Практически безоблачно+18°C86 %759 мм1.1 м/с16 %
Мы используем cookies
Соглашаюсь